X  Fechar Dados meteorológicos de METAR da aviação     EDDK Cologne Bonn Airport
Temperatura
23°C Temperatura
14°C Ponto de orvalho
57% Umidade



Vento
8 MPH
13 KM/H
4 M/S
7 NÓS



310°
NO
Condições atuais

Parcialmente nublado Parcialmente nublado
Pressão 1021 (hPa) - 30.15 (inHg)
Visibilidade 6 (milha) - 9.7 (km)
Aeroporto
Código do aeroporto EDDK

Localização: Cologne Bonn Airport
Distância: 56 (mi)

Metar:
EDDK 171320Z AUTO 31007KT 270V350 9999 FEW043 23/14 Q1021 NOSIG

Hora: 2024-07-17 15:20 CEST